Albelo Primero — ECMU — position and weather

sailwx.info

Track history (hours):
 
Tides and Currents Weather Stations Pressure Air Temp Water Temp Dewpoint Dewpoint Depression Visibility Wind Speed Wind Dir Waves Ship Positions

Albelo Primero

Last reported at 2014-Dec-07 13:10 UTC. Time now 2014-Dec-20 13:39 UTC.
Position N 51°25' W 010°04'.
Warning: this ship's position is 13 days out of date.

Length 32 m; draft 3.5 m.

Type: Fishing. MMSI: 225360000.

Date/timePositionNaut miles runAvg speedWind from/ knotsBaromVisibWave heightAir tempDewpointWater temp
2014-Dec-07 13:10N 51°25' W 010°04'8 9.6
2014-Dec-07 12:22N 51°32' W 009°59'7 8.7
2014-Dec-07 11:32N 51°39' W 009°54'0 0.0
2014-Dec-07 10:32N 51°39' W 009°54'0 0.0
2014-Dec-07 09:32N 51°39' W 009°54'0 0.0
2014-Dec-07 08:30N 51°39' W 009°54'0 0.0
2014-Dec-07 07:32N 51°39' W 009°54'0 0.0
2014-Dec-07 06:32N 51°39' W 009°54'0 0.0
2014-Dec-06 21:33N 51°39' W 009°54'0 0.0
2014-Dec-06 20:30N 51°39' W 009°54'0 0.0
2014-Dec-06 19:32N 51°39' W 009°54'0 0.0
2014-Dec-06 18:30N 51°39' W 009°54'0 0.0
2014-Dec-06 17:30N 51°39' W 009°54'0 0.0
2014-Dec-06 16:31N 51°39' W 009°54'8 8.0
2014-Dec-06 15:31N 51°34' W 010°05'  
2014-Nov-30 10:08N 51°34' W 010°13'5 8.9
2014-Nov-30 09:33N 51°34' W 010°05'8 7.8
2014-Nov-30 08:32N 51°39' W 009°54'0 0.0
2014-Nov-29 23:13N 51°39' W 009°54'0 0.0
2014-Nov-29 22:32N 51°39' W 009°54'0 0.0
2014-Nov-29 21:33N 51°39' W 009°54'8 7.8
2014-Nov-29 20:33N 51°34' W 010°04'  
Track history (hours):
 
Tides and Currents Weather Stations Pressure Air Temp Water Temp Dewpoint Dewpoint Depression Visibility Wind Speed Wind Dir Waves Ship Positions

Albelo Primero

Last reported at 2014-Dec-07 13:10 UTC. Time now 2014-Dec-20 13:39 UTC.
Position N 51°25' W 010°04'.
Warning: this ship's position is 13 days out of date.

Length 32 m; draft 3.5 m.

Type: Fishing. MMSI: 225360000.

Date/timePositionNaut miles runAvg speedWind from/ knotsBaromVisibWave heightAir tempDewpointWater temp
2014-Dec-07 13:10N 51°25' W 010°04'8 9.6
2014-Dec-07 12:22N 51°32' W 009°59'7 8.7
2014-Dec-07 11:32N 51°39' W 009°54'0 0.0
2014-Dec-07 10:32N 51°39' W 009°54'0 0.0
2014-Dec-07 09:32N 51°39' W 009°54'0 0.0
2014-Dec-07 08:30N 51°39' W 009°54'0 0.0
2014-Dec-07 07:32N 51°39' W 009°54'0 0.0
2014-Dec-07 06:32N 51°39' W 009°54'0 0.0
2014-Dec-06 21:33N 51°39' W 009°54'0 0.0
2014-Dec-06 20:30N 51°39' W 009°54'0 0.0
2014-Dec-06 19:32N 51°39' W 009°54'0 0.0
2014-Dec-06 18:30N 51°39' W 009°54'0 0.0
2014-Dec-06 17:30N 51°39' W 009°54'0 0.0
2014-Dec-06 16:31N 51°39' W 009°54'8 8.0
2014-Dec-06 15:31N 51°34' W 010°05'  
2014-Nov-30 10:08N 51°34' W 010°13'5 8.9
2014-Nov-30 09:33N 51°34' W 010°05'8 7.8
2014-Nov-30 08:32N 51°39' W 009°54'0 0.0
2014-Nov-29 23:13N 51°39' W 009°54'0 0.0
2014-Nov-29 22:32N 51°39' W 009°54'0 0.0
2014-Nov-29 21:33N 51°39' W 009°54'8 7.8
2014-Nov-29 20:33N 51°34' W 010°04'  

Dump ship's entire track history